Terminal Aerodrome Forecast
Issued by NWS

Home | Current Version | Previous Version | Text Only | Print | Product List | Glossary On
Versions: 1 2 3 4 5 6 7 8 9 10 11 12 13
000
FTUS46 KLOX 202000 AAA
TAFLGB
TAF AMD
KLGB 202050Z 2021/2118 24006KT P6SM SCT025 SCT100 BKN250
      TEMPO 2021/2023 BKN024
     FM210300 VRB03KT P6SM BKN250
     FM211000 02004KT P6SM SCT250=

USA.gov is the U.S. government's official web portal to all federal, state and local government web resources and services.